Minneapolis, Minnesota
Traffic Map
Current Weather Conditions
Minneapolis, Minnesota
Clear
Clear
-4°
Feels Like: -16°
Wind Chill: -16° Ceiling: Unl
Heat Index: -4° Visibility: 10mi
Dew Point: -12° Wind: 6mph
Humidity: 69% Direction: 320° (NW)
Pressure: 30.65in Gusts: 0mph
Raw Report DataKMSP 130853Z 32005KT 10SM CLR M20/M24 A3065 RMK AO2 SLP402 T12001244 51010
Traffic Incident Summary
Active as of:
Severity:
Category:
InformationThere was an issue retrieving the traffic information for this location. Please try a different location or try again shortly.
Advertisements
Track Severe Weather on mobile